Time;durP1;ratioP1;P1;durP2;ratioP2;P2;SDS_P1;SDS_P2;PMS_P1;PMS_P2;Temp;Humidity;BMP_temperature;BMP_pressure;BME280_temperature;BME280_humidity;BME280_pressure;Samples;Min_cycle;Max_cycle;Signal;HPM_P1;HPM_P2
2023/05/28 00:00:18;;;;;;;18.25;6.15;;;;;;;;;;4990640;28;20410;-72
2023/05/28 00:02:45;;;;;;;16.63;6.00;;;;;;;;;;5012901;28;20441;-71
2023/05/28 00:05:11;;;;;;;22.58;7.10;;;;;;;;;;5012649;28;20816;-71
2023/05/28 00:07:39;;;;;;;28.08;6.43;;;;;;;;;;5012695;28;20123;-74
2023/05/28 00:10:05;;;;;;;17.63;6.07;;;8.40;99.90;;;;;;4993120;28;20132;-72
2023/05/28 00:12:31;;;;;;;27.77;6.70;;;;;;;;;;5005306;28;20518;-74
2023/05/28 00:14:57;;;;;;;18.08;7.13;;;;;;;;;;5009609;28;20058;-73
2023/05/28 00:17:23;;;;;;;21.23;7.13;;;;;;;;;;5012410;28;20081;-75
2023/05/28 00:19:49;;;;;;;23.83;7.95;;;;;;;;;;5007713;28;20757;-76
2023/05/28 00:22:16;;;;;;;25.23;6.57;;;;;;;;;;4999726;28;20046;-76
2023/05/28 00:24:42;;;;;;;20.65;6.13;;;;;;;;;;5008674;28;20045;-76
2023/05/28 00:27:08;;;;;;;19.23;6.35;;;;;;;;;;4999945;28;20045;-73
2023/05/28 00:29:34;;;;;;;28.30;7.65;;;;;;;;;;5009281;28;20053;-72
2023/05/28 00:32:00;;;;;;;22.85;8.07;;;;;;;;;;5004849;28;20041;-74
2023/05/28 00:34:26;;;;;;;23.17;7.32;;;;;;;;;;4998959;28;20527;-74
2023/05/28 00:36:56;;;;;;;22.80;6.35;;;8.20;99.90;;;;;;4996267;28;20064;-74
2023/05/28 00:39:22;;;;;;;20.25;7.07;;;;;;;;;;5009183;28;20088;-73
2023/05/28 00:41:48;;;;;;;22.70;7.65;;;;;;;;;;5003250;28;20054;-72
2023/05/28 00:44:14;;;;;;;15.77;5.88;;;;;;;;;;5002295;28;20150;-74
2023/05/28 00:46:42;;;;;;;26.58;8.23;;;8.00;99.90;;;;;;5002557;28;20081;-72
2023/05/28 00:49:10;;;;;;;25.20;6.85;;;8.10;99.90;;;;;;5011181;28;20061;-75
2023/05/28 00:51:36;;;;;;;18.83;8.15;;;;;;;;;;4994203;28;20471;-72
2023/05/28 00:54:06;;;;;;;20.83;6.53;;;;;;;;;;5012147;28;20057;-75
2023/05/28 00:56:32;;;;;;;20.85;6.55;;;;;;;;;;5010567;28;20045;-74
2023/05/28 00:59:01;;;;;;;21.58;6.35;;;7.90;99.90;;;;;;5001532;28;20056;-76
2023/05/28 01:01:29;;;;;;;20.25;6.80;;;;;;;;;;4997097;28;20049;-70
2023/05/28 01:03:55;;;;;;;17.52;7.07;;;;;;;;;;5006385;28;20168;-71
2023/05/28 01:06:22;;;;;;;12.05;6.80;;;7.80;99.90;;;;;;4994445;28;20084;-75
2023/05/28 01:08:50;;;;;;;25.52;6.75;;;7.70;99.90;;;;;;4999650;28;20265;-71
2023/05/28 01:11:18;;;;;;;29.05;8.52;;;7.90;99.90;;;;;;5006778;28;20049;-75
2023/05/28 01:13:45;;;;;;;15.35;6.97;;;7.80;99.90;;;;;;4996276;28;20054;-71
2023/05/28 01:16:12;;;;;;;17.55;7.57;;;;;;;;;;4993899;28;20128;-69
2023/05/28 01:18:39;;;;;;;17.92;6.72;;;7.90;99.90;;;;;;5010510;28;20048;-74
2023/05/28 01:21:06;;;;;;;17.58;7.30;;;;;;;;;;4988330;28;20056;-74
2023/05/28 01:23:51;;;;;;;23.17;7.30;;;;;;;;;;5010840;28;20053;-73
2023/05/28 01:26:17;;;;;;;23.45;7.97;;;;;;;;;;4998254;28;20651;-72
2023/05/28 01:28:47;;;;;;;21.80;7.15;;;8.10;99.90;;;;;;5006441;28;20410;-75
2023/05/28 01:31:14;;;;;;;22.65;7.90;;;;;;;;;;4995597;28;20124;-72
2023/05/28 01:33:43;;;;;;;26.75;7.75;;;8.20;99.90;;;;;;4998518;28;20076;-74
2023/05/28 01:36:25;;;;;;;26.98;7.55;;;8.30;99.90;;;;;;5002637;28;20045;-72
2023/05/28 01:38:53;;;;;;;17.15;7.47;;;;;;;;;;4995500;28;20926;-75
2023/05/28 01:41:20;;;;;;;21.23;7.68;;;8.50;99.90;;;;;;5006109;28;20062;-76
2023/05/28 01:43:46;;;;;;;28.20;9.45;;;;;;;;;;4989898;28;20560;-76
2023/05/28 01:46:13;;;;;;;25.67;7.95;;;;;;;;;;5004564;28;20073;-72
2023/05/28 01:48:39;;;;;;;26.15;8.30;;;;;;;;;;4988254;28;20426;-77
2023/05/28 01:51:06;;;;;;;27.25;8.98;;;;;;;;;;5010735;28;20406;-75
2023/05/28 01:53:32;;;;;;;26.85;8.57;;;;;;;;;;5009961;28;20049;-71
2023/05/28 01:55:58;;;;;;;24.77;8.65;;;;;;;;;;5010384;28;20733;-74
2023/05/28 01:58:24;;;;;;;27.40;9.52;;;;;;;;;;5013351;28;20059;-75
2023/05/28 02:01:15;;;;;;;26.13;7.97;;;8.90;99.90;;;;;;4997840;28;20045;-73
2023/05/28 02:03:41;;;;;;;26.15;7.70;;;;;;;;;;5014536;28;20075;-73
2023/05/28 02:06:07;;;;;;;21.58;7.32;;;;;;;;;;5014645;28;20152;-74
2023/05/28 02:08:33;;;;;;;23.65;8.15;;;;;;;;;;5014549;28;20073;-70
2023/05/28 02:11:00;;;;;;;25.55;7.97;;;;;;;;;;5014477;28;20053;-74
2023/05/28 02:13:27;;;;;;;28.27;8.45;;;;;;;;;;4997938;28;20057;-75
2023/05/28 02:15:54;;;;;;;24.05;9.40;;;9.00;99.90;;;;;;5014047;28;20469;-72
2023/05/28 02:18:20;;;;;;;28.20;9.05;;;;;;;;;;4998436;28;20054;-73
2023/05/28 02:20:47;;;;;;;24.17;8.10;;;;;;;;;;5013972;28;20052;-71
2023/05/28 02:23:13;;;;;;;23.38;8.13;;;;;;;;;;5014480;28;20148;-75
2023/05/28 02:25:39;;;;;;;20.17;8.10;;;;;;;;;;5011013;28;20053;-76
2023/05/28 02:28:05;;;;;;;23.48;10.32;;;;;;;;;;5005990;28;20042;-71
2023/05/28 02:30:31;;;;;;;26.00;7.93;;;;;;;;;;5000401;28;20554;-74
2023/05/28 02:32:57;;;;;;;23.00;9.25;;;;;;;;;;5007624;28;20062;-73
2023/05/28 02:35:23;;;;;;;26.25;9.00;;;;;;;;;;5011361;28;20115;-73
2023/05/28 02:37:50;;;;;;;27.65;8.13;;;;;;;;;;4994994;28;20053;-71
2023/05/28 02:40:16;;;;;;;19.90;7.88;;;;;;;;;;4998447;28;20536;-76
2023/05/28 02:42:42;;;;;;;23.30;7.53;;;;;;;;;;5004097;28;20068;-71
2023/05/28 02:45:09;;;;;;;30.90;8.48;;;9.30;99.90;;;;;;5011151;28;20698;-71
2023/05/28 02:47:35;;;;;;;26.52;8.07;;;;;;;;;;4997164;28;20810;-75
2023/05/28 02:50:01;;;;;;;25.88;9.90;;;;;;;;;;5002149;28;20059;-73
2023/05/28 02:52:27;;;;;;;35.15;9.82;;;;;;;;;;5005337;28;20132;-74
2023/05/28 02:54:53;;;;;;;26.23;7.75;;;;;;;;;;5000677;28;20057;-72
2023/05/28 02:57:19;;;;;;;31.20;9.93;;;;;;;;;;5002862;28;20061;-72
2023/05/28 02:59:45;;;;;;;24.10;7.82;;;;;;;;;;5011373;28;20056;-72
2023/05/28 03:02:11;;;;;;;30.45;11.10;;;;;;;;;;5014211;28;20107;-74
2023/05/28 03:04:38;;;;;;;25.02;8.27;;;;;;;;;;5013868;28;20123;-74
2023/05/28 03:07:04;;;;;;;23.23;9.20;;;;;;;;;;5013294;28;20448;-75
2023/05/28 03:09:30;;;;;;;26.77;8.20;;;;;;;;;;5013303;28;20111;-77
2023/05/28 03:11:56;;;;;;;24.60;8.18;;;;;;;;;;4990570;28;20057;-73
2023/05/28 03:14:23;;;;;;;31.98;10.38;;;;;;;;;;5013306;28;20061;-71
2023/05/28 03:16:49;;;;;;;26.77;9.07;;;;;;;;;;5003788;28;20050;-76
2023/05/28 03:19:15;;;;;;;31.13;10.07;;;;;;;;;;4989995;28;20099;-77
2023/05/28 03:21:41;;;;;;;28.33;9.82;;;;;;;;;;4995334;28;20045;-74
2023/05/28 03:24:07;;;;;;;24.83;10.10;;;;;;;;;;5006932;28;20046;-74
2023/05/28 03:26:33;;;;;;;25.20;8.95;;;;;;;;;;5007614;28;20053;-74
2023/05/28 03:28:59;;;;;;;28.48;8.93;;;;;;;;;;5005551;28;20063;-73
2023/05/28 03:31:28;;;;;;;23.17;9.38;;;;;;;;;;5008538;28;20402;-74
2023/05/28 03:33:55;;;;;;;29.23;9.18;;;;;;;;;;5008303;28;20050;-72
2023/05/28 03:36:22;;;;;;;26.80;10.38;;;;;;;;;;5005901;28;20057;-74
2023/05/28 03:38:48;;;;;;;25.25;9.18;;;;;;;;;;5012342;28;20042;-70
2023/05/28 03:41:14;;;;;;;24.80;8.05;;;;;;;;;;5001686;28;20085;-75
2023/05/28 03:43:40;;;;;;;25.17;9.75;;;;;;;;;;5006915;28;20045;-75
2023/05/28 03:46:07;;;;;;;31.88;10.25;;;;;;;;;;5000059;28;20071;-73
2023/05/28 03:48:33;;;;;;;27.60;8.88;;;;;;;;;;5004645;28;20152;-76
2023/05/28 03:51:00;;;;;;;20.40;8.57;;;;;;;;;;5005236;28;20053;-76
2023/05/28 03:53:26;;;;;;;21.27;7.32;;;;;;;;;;5012194;28;20153;-75
2023/05/28 03:55:52;;;;;;;22.38;8.05;;;;;;;;;;5012708;28;20049;-74
2023/05/28 03:58:18;;;;;;;29.50;10.52;;;;;;;;;;5003113;28;20112;-73
2023/05/28 04:00:45;;;;;;;26.05;8.30;;;;;;;;;;5008885;28;20793;-70
2023/05/28 04:03:11;;;;;;;21.65;8.15;;;;;;;;;;4986113;28;20187;-74
2023/05/28 04:05:37;;;;;;;24.02;8.38;;;;;;;;;;5012599;28;20605;-73
2023/05/28 04:08:03;;;;;;;29.30;7.85;;;;;;;;;;5012701;28;20056;-76
2023/05/28 04:10:29;;;;;;;22.42;7.78;;;;;;;;;;4995940;28;20545;-72
2023/05/28 04:12:56;;;;;;;23.70;7.47;;;;;;;;;;5012215;28;20049;-72
2023/05/28 04:15:22;;;;;;;24.00;8.80;;;;;;;;;;5009270;28;20257;-74
2023/05/28 04:17:48;;;;;;;23.83;7.53;;;;;;;;;;5006680;28;20136;-75
2023/05/28 04:20:14;;;;;;;22.15;7.25;;;;;;;;;;5006097;28;20061;-76
2023/05/28 04:22:40;;;;;;;27.08;9.02;;;;;;;;;;5010442;28;20495;-75
2023/05/28 04:25:07;;;;;;;24.80;7.70;;;;;;;;;;5005200;28;20068;-73
2023/05/28 04:27:33;;;;;;;19.77;7.57;;;;;;;;;;4995679;28;20053;-75
2023/05/28 04:29:59;;;;;;;22.25;7.03;;;;;;;;;;4998992;28;20104;-75
2023/05/28 04:32:27;;;;;;;33.85;9.85;;;;;;;;;;5000787;28;20517;-75
2023/05/28 04:34:54;;;;;;;19.95;7.05;;;;;;;;;;4989070;28;20049;-70
2023/05/28 04:37:21;;;;;;;31.88;8.55;;;;;;;;;;5005397;28;20054;-74
2023/05/28 04:39:48;;;;;;;21.63;8.05;;;;;;;;;;4995260;28;20049;-73
2023/05/28 04:42:16;;;;;;;19.60;7.88;;;;;;;;;;4953229;28;1146259;-75
2023/05/28 04:44:45;;;;;;;26.90;8.15;;;10.70;99.90;;;;;;5015123;28;20141;-74
2023/05/28 04:47:12;;;;;;;23.55;7.18;;;;;;;;;;5011672;28;20096;-74
2023/05/28 04:49:40;;;;;;;20.50;7.32;;;;;;;;;;5011581;28;20341;-74
2023/05/28 04:52:06;;;;;;;19.45;7.72;;;;;;;;;;5011623;28;20966;-73
2023/05/28 04:54:32;;;;;;;25.77;7.00;;;;;;;;;;5002972;28;20085;-71
2023/05/28 04:56:59;;;;;;;19.80;7.05;;;;;;;;;;5011071;28;20366;-71
2023/05/28 04:59:25;;;;;;;17.00;6.85;;;;;;;;;;5011408;28;20496;-72
2023/05/28 05:01:51;;;;;;;16.63;6.28;;;;;;;;;;5000266;28;20099;-71
2023/05/28 05:04:17;;;;;;;17.45;8.07;;;;;;;;;;4990749;28;20124;-74
2023/05/28 05:06:43;;;;;;;17.10;7.22;;;;;;;;;;5006332;28;20057;-73
2023/05/28 05:09:09;;;;;;;15.68;5.35;;;;;;;;;;5011686;28;20163;-74
2023/05/28 05:11:36;;;;;;;18.30;6.32;;;;;;;;;;5011429;28;20196;-72
2023/05/28 05:14:02;;;;;;;20.42;6.13;;;;;;;;;;5010614;28;20045;-74
2023/05/28 05:16:28;;;;;;;20.65;6.30;;;;;;;;;;4981780;28;20054;-73
2023/05/28 05:18:54;;;;;;;21.73;6.40;;;;;;;;;;4998610;28;20045;-75
2023/05/28 05:21:21;;;;;;;17.23;5.75;;;;;;;;;;4993714;28;20593;-72
2023/05/28 05:23:47;;;;;;;19.67;5.63;;;;;;;;;;5007028;28;20530;-75
2023/05/28 05:26:14;;;;;;;18.35;5.32;;;;;;;;;;4994377;28;20504;-74
2023/05/28 05:28:41;;;;;;;19.02;6.53;;;;;;;;;;4982131;28;20053;-70
2023/05/28 05:31:07;;;;;;;15.73;5.70;;;;;;;;;;4991345;28;20041;-70
2023/05/28 05:33:33;;;;;;;15.65;5.25;;;;;;;;;;5008507;28;20064;-74
2023/05/28 05:36:00;;;;;;;14.05;5.25;;;;;;;;;;5009403;28;20059;-76
2023/05/28 05:38:26;;;;;;;15.82;4.75;;;;;;;;;;5014634;28;20052;-73
2023/05/28 05:40:52;;;;;;;13.82;5.68;;;;;;;;;;5004417;28;20045;-75
2023/05/28 05:43:18;;;;;;;16.95;4.75;;;;;;;;;;5014555;28;20053;-74
2023/05/28 05:45:45;;;;;;;25.27;6.60;;;;;;;;;;5010167;28;20143;-72
2023/05/28 05:48:11;;;;;;;15.07;4.25;;;;;;;;;;5010796;28;20124;-72
2023/05/28 05:50:55;;;;;;;15.95;4.07;;;15.90;99.20;;;;;;5015126;28;20083;-76
2023/05/28 05:53:22;;;;;;;16.83;4.43;;;;;;;;;;5007941;28;20422;-73
2023/05/28 05:55:48;;;;;;;10.95;4.00;;;;;;;;;;5009272;28;20148;-74
2023/05/28 05:58:15;;;;;;;10.60;3.40;;;;;;;;;;5007840;28;20130;-71
2023/05/28 06:00:41;;;;;;;14.20;4.07;;;;;;;;;;5014917;28;20053;-76
2023/05/28 06:03:07;;;;;;;11.98;3.53;;;;;;;;;;4998655;28;20056;-77
2023/05/28 06:05:34;;;;;;;16.52;4.90;;;;;;;;;;5011276;28;20057;-77
2023/05/28 06:08:02;;;;;;;14.00;4.38;;;;;;;;;;4989545;28;20049;-74
2023/05/28 06:10:29;;;;;;;14.43;4.13;;;;;;;;;;4995670;28;20053;-74
2023/05/28 06:12:55;;;;;;;12.48;4.13;;;;;;;;;;5011096;28;20119;-73
2023/05/28 06:15:21;;;;;;;13.40;3.83;;;;;;;;;;5001997;28;20137;-75
2023/05/28 06:17:48;;;;;;;12.95;4.38;;;;;;;;;;5005660;28;20060;-72
2023/05/28 06:20:14;;;;;;;9.73;3.38;;;;;;;;;;5000843;28;20053;-71
2023/05/28 06:22:41;;;;;;;11.13;3.50;;;;;;;;;;5014559;28;20062;-76
2023/05/28 06:25:08;;;;;;;11.05;3.63;;;;;;;;;;5009193;28;20041;-73
2023/05/28 06:27:35;;;;;;;9.45;2.92;;;;;;;;;;5015050;28;20111;-76
2023/05/28 06:30:02;;;;;;;11.65;3.65;;;;;;;;;;4997748;28;20049;-72
2023/05/28 06:32:28;;;;;;;9.93;3.72;;;;;;;;;;5008724;28;20077;-78
2023/05/28 06:34:54;;;;;;;7.80;2.95;;;;;;;;;;4994568;28;20050;-78
2023/05/28 06:37:21;;;;;;;10.43;3.13;;;;;;;;;;5013280;28;20053;-78
2023/05/28 06:39:47;;;;;;;10.82;3.00;;;;;;;;;;5003962;28;20093;-73
2023/05/28 06:42:13;;;;;;;10.68;3.47;;;;;;;;;;5013658;28;20049;-73
2023/05/28 06:44:39;;;;;;;6.85;2.88;;;;;;;;;;5013687;28;20045;-76
2023/05/28 06:47:05;;;;;;;8.23;2.80;;;;;;;;;;4997145;28;20056;-73
2023/05/28 06:49:31;;;;;;;7.82;3.45;;;;;;;;;;5009474;28;20866;-73
2023/05/28 06:51:58;;;;;;;11.00;3.28;;;;;;;;;;5014552;28;20065;-71
2023/05/28 06:54:24;;;;;;;10.43;3.08;;;;;;;;;;5004572;28;20064;-76
2023/05/28 06:56:50;;;;;;;11.40;3.30;;;;;;;;;;4984929;28;20073;-78
2023/05/28 06:59:16;;;;;;;7.25;3.17;;;;;;;;;;5013756;28;20056;-75
2023/05/28 07:01:42;;;;;;;8.40;3.05;;;;;;;;;;5009613;28;20502;-74
2023/05/28 07:04:09;;;;;;;10.02;3.95;;;;;;;;;;4997526;28;20081;-73
2023/05/28 07:06:35;;;;;;;6.57;3.10;;;;;;;;;;5006980;28;20042;-73
2023/05/28 07:09:01;;;;;;;8.10;3.50;;;;;;;;;;5009644;28;20052;-76
2023/05/28 07:11:27;;;;;;;9.30;3.58;;;;;;;;;;5010738;28;20143;-74
2023/05/28 07:13:54;;;;;;;10.52;3.47;;;;;;;;;;5008380;28;20120;-73
2023/05/28 07:16:21;;;;;;;7.63;2.63;;;;;;;;;;5001562;28;20060;-73
2023/05/28 07:18:47;;;;;;;7.72;3.78;;;;;;;;;;4997341;28;20869;-79
2023/05/28 07:21:13;;;;;;;8.70;3.30;;;;;;;;;;4985366;28;20101;-75
2023/05/28 07:23:40;;;;;;;10.48;3.90;;;;;;;;;;4988811;28;20041;-72
2023/05/28 07:26:06;;;;;;;8.50;3.75;;;;;;;;;;5003155;28;20046;-75
2023/05/28 07:28:32;;;;;;;7.03;3.33;;;;;;;;;;5004483;28;20112;-77
2023/05/28 07:30:58;;;;;;;6.50;2.92;;;;;;;;;;4997413;28;20493;-75
2023/05/28 07:33:24;;;;;;;6.60;4.15;;;;;;;;;;5004462;28;20188;-71
2023/05/28 07:35:50;;;;;;;10.15;5.10;;;;;;;;;;5010970;28;20136;-75
2023/05/28 07:38:17;;;;;;;6.30;3.35;;;;;;;;;;5006448;28;20049;-71
2023/05/28 07:40:43;;;;;;;9.10;4.35;;;;;;;;;;5008176;28;20219;-72
2023/05/28 07:43:09;;;;;;;7.90;4.00;;;;;;;;;;4996841;28;20479;-78
2023/05/28 07:45:36;;;;;;;7.60;4.25;;;;;;;;;;4994542;28;20081;-73
2023/05/28 07:48:02;;;;;;;7.55;3.85;;;;;;;;;;4993308;28;20060;-74
2023/05/28 07:50:28;;;;;;;10.43;4.70;;;;;;;;;;5012772;28;20858;-73
2023/05/28 07:52:54;;;;;;;7.80;4.32;;;;;;;;;;5011718;28;20049;-77
2023/05/28 07:55:21;;;;;;;7.45;4.13;;;;;;;;;;4996492;28;20061;-73
2023/05/28 07:57:47;;;;;;;7.45;4.00;;;;;;;;;;4998250;28;20060;-75
2023/05/28 08:00:15;;;;;;;8.63;3.85;;;;;;;;;;5008149;28;20866;-74
2023/05/28 08:02:44;;;;;;;8.00;4.25;;;38.60;34.70;;;;;;5007508;28;20081;-70
2023/05/28 08:05:11;;;;;;;6.82;3.30;;;39.30;35.00;;;;;;4990878;28;20046;-74
2023/05/28 08:07:37;;;;;;;9.00;4.25;;;;;;;;;;5007516;28;20394;-77
2023/05/28 08:10:04;;;;;;;7.00;4.03;;;39.70;34.60;;;;;;5005013;28;20045;-74
2023/05/28 08:12:30;;;;;;;10.80;3.55;;;;;;;;;;5003846;28;20053;-76
2023/05/28 08:14:56;;;;;;;8.25;3.47;;;;;;;;;;5002059;28;20046;-75
2023/05/28 08:17:22;;;;;;;6.63;3.53;;;;;;;;;;5010693;28;20515;-76
2023/05/28 08:19:49;;;;;;;7.38;3.47;;;39.60;34.30;;;;;;4999211;28;20048;-75
2023/05/28 08:22:15;;;;;;;8.40;4.15;;;;;;;;;;4990655;28;20818;-76
2023/05/28 08:24:42;;;;;;;7.80;3.85;;;;;;;;;;5010370;28;20414;-72
2023/05/28 08:27:08;;;;;;;5.82;3.38;;;;;;;;;;5006839;28;20041;-72
2023/05/28 08:29:34;;;;;;;9.77;3.22;;;;;;;;;;4995992;28;20493;-73
2023/05/28 08:32:01;;;;;;;6.30;3.47;;;;;;;;;;5007714;28;20048;-74
2023/05/28 08:34:27;;;;;;;9.50;3.63;;;;;;;;;;5003544;28;20045;-77
2023/05/28 08:36:53;;;;;;;6.88;3.67;;;;;;;;;;5000355;28;20108;-77
2023/05/28 08:39:20;;;;;;;7.85;3.67;;;;;;;;;;5012273;28;20152;-73
2023/05/28 08:41:46;;;;;;;5.60;2.85;;;;;;;;;;5006348;28;20107;-72
2023/05/28 08:44:12;;;;;;;6.63;3.40;;;;;;;;;;5011906;28;20528;-76
2023/05/28 08:46:39;;;;;;;6.43;3.60;;;40.10;32.70;;;;;;5004395;28;20288;-73
2023/05/28 08:49:07;;;;;;;8.57;4.05;;;40.10;31.90;;;;;;4982588;28;20223;-75
2023/05/28 08:51:33;;;;;;;7.85;3.70;;;;;;;;;;4998458;28;20703;-74
2023/05/28 08:54:00;;;;;;;6.20;3.50;;;;;;;;;;5003175;28;20092;-75
2023/05/28 08:56:27;;;;;;;6.40;3.10;;;;;;;;;;5002787;28;20136;-76
2023/05/28 08:58:53;;;;;;;5.90;3.35;;;40.50;31.20;;;;;;4996085;28;20104;-75
2023/05/28 09:01:19;;;;;;;6.45;3.42;;;41.00;31.80;;;;;;4993695;28;20111;-73
2023/05/28 09:03:46;;;;;;;5.57;3.67;;;;;;;;;;5000380;28;20058;-72
2023/05/28 09:06:15;;;;;;;6.43;3.63;;;;;;;;;;5002775;28;20103;-74
2023/05/28 09:08:44;;;;;;;6.25;3.75;;;41.70;30.50;;;;;;5003214;28;20056;-73
2023/05/28 09:11:15;;;;;;;5.25;3.10;;;40.30;30.20;;;;;;4993569;28;20156;-74
2023/05/28 09:13:45;;;;;;;8.13;3.72;;;40.20;30.10;;;;;;4983565;28;20539;-71
2023/05/28 09:16:11;;;;;;;;;;;39.90;30.20;;;;;;5002525;28;20064;-71
2023/05/28 09:18:38;;;;;;;5.35;3.40;;;;;;;;;;4996110;28;20027;-72
2023/05/28 09:21:10;;;;;;;6.78;3.58;;;39.20;31.00;;;;;;5001874;28;20080;-77
2023/05/28 09:23:36;;;;;;;9.38;3.60;;;;;;;;;;5006483;28;20083;-76
2023/05/28 09:26:02;;;;;;;6.75;2.95;;;;;;;;;;5006185;28;20101;-76
2023/05/28 09:28:29;;;;;;;5.25;3.50;;;;;;;;;;5003413;28;20059;-74
2023/05/28 09:31:05;;;;;;;8.55;3.70;;;;;;;;;;4997589;28;20053;-74
2023/05/28 09:33:33;;;;;;;5.05;3.53;;;39.00;30.40;;;;;;4992188;28;20203;-75
2023/05/28 09:36:00;;;;;;;6.60;3.10;;;;;;;;;;5000273;28;20104;-75
2023/05/28 09:38:26;;;;;;;7.72;3.67;;;38.60;31.00;;;;;;4997436;28;20128;-71
2023/05/28 09:40:55;;;;;;;5.70;3.53;;;38.00;30.40;;;;;;5005057;28;20515;-76
2023/05/28 09:43:30;;;;;;;5.97;2.95;;;38.00;31.20;;;;;;4986584;28;20037;-71
2023/05/28 09:46:09;;;;;;;6.78;3.80;;;37.90;30.00;;;;;;5006919;28;20049;-72
2023/05/28 09:48:35;;;;;;;7.95;3.47;;;;;;;;;;5005085;28;20620;-76
2023/05/28 09:51:07;;;;;;;5.72;3.13;;;38.20;31.70;;;;;;5011006;28;20518;-75
2023/05/28 09:53:34;;;;;;;5.78;3.38;;;;;;;;;;4982647;28;20467;-73
2023/05/28 09:56:02;;;;;;;6.78;3.50;;;38.40;30.20;;;;;;4991747;28;20053;-71
2023/05/28 09:58:34;;;;;;;5.28;3.40;;;38.70;31.00;;;;;;4985837;28;20136;-72
2023/05/28 10:01:07;;;;;;;5.82;3.67;;;39.00;30.70;;;;;;4999398;28;20052;-72
2023/05/28 10:04:07;;;;;;;4.90;2.90;;;38.80;30.90;;;;;;4998602;28;20060;-74
2023/05/28 10:06:35;;;;;;;6.37;3.03;;;38.90;31.40;;;;;;4985304;28;20556;-74
2023/05/28 10:09:02;;;;;;;5.43;3.50;;;39.10;30.90;;;;;;5009371;28;20053;-72
2023/05/28 10:11:34;;;;;;;5.00;3.53;;;;;;;;;;4993461;28;20121;-72
2023/05/28 10:14:00;;;;;;;;;;;39.00;31.80;;;;;;5005520;28;20057;-71
2023/05/28 10:16:26;;;;;;;6.70;3.88;;;39.10;30.70;;;;;;5005680;28;19931;-74
2023/05/28 10:18:53;;;;;;;6.07;3.25;;;39.10;30.60;;;;;;4996591;28;20814;-73
2023/05/28 10:21:20;;;;;;;5.03;2.88;;;;;;;;;;5010197;28;20065;-74
2023/05/28 10:23:47;;;;;;;6.20;3.50;;;38.90;30.30;;;;;;5009538;28;20081;-72
2023/05/28 10:26:14;;;;;;;11.18;4.07;;;38.70;29.70;;;;;;5010567;28;20178;-75
2023/05/28 10:28:41;;;;;;;5.70;3.58;;;;;;;;;;5009655;28;20068;-75
2023/05/28 10:31:07;;;;;;;6.18;3.67;;;38.70;31.00;;;;;;5011023;28;20784;-72
2023/05/28 10:33:40;;;;;;;6.40;2.97;;;38.10;29.50;;;;;;5003704;28;20057;-72
2023/05/28 10:36:13;;;;;;;8.20;3.05;;;37.50;29.40;;;;;;5003220;28;20050;-76
2023/05/28 10:38:52;;;;;;;6.75;3.15;;;37.20;29.60;;;;;;5001729;28;20056;-74
2023/05/28 10:41:23;;;;;;;7.05;3.40;;;36.90;29.50;;;;;;5005487;28;20084;-72
2023/05/28 10:43:49;;;;;;;6.68;2.90;;;;;;;;;;5009028;28;20067;-73
2023/05/28 10:46:20;;;;;;;6.85;3.00;;;;;;;;;;5009751;28;20102;-75
2023/05/28 10:49:15;;;;;;;6.57;3.20;;;32.90;30.10;;;;;;4989672;28;20041;-74
2023/05/28 10:52:00;;;;;;;5.65;3.58;;;30.70;31.90;;;;;;5005799;28;20473;-74
2023/05/28 10:54:30;;;;;;;6.07;2.72;;;30.00;34.20;;;;;;4990494;28;20045;-72
2023/05/28 10:57:20;;;;;;;6.75;2.47;;;28.90;34.70;;;;;;4993271;28;20048;-76
2023/05/28 11:00:09;;;;;;;7.95;3.30;;;;;;;;;;4989386;28;20051;-78
2023/05/28 11:02:36;;;;;;;5.65;3.10;;;;;;;;;;5000950;28;20050;-74
2023/05/28 11:05:04;;;;;;;7.15;3.42;;;;;;;;;;5004292;28;20454;-76
2023/05/28 11:07:41;;;;;;;6.07;2.80;;;27.00;37.80;;;;;;4990186;28;20077;-76
2023/05/28 11:10:12;;;;;;;6.53;2.97;;;26.70;36.80;;;;;;5001610;28;20107;-73
2023/05/28 11:12:45;;;;;;;6.28;3.20;;;26.10;37.90;;;;;;5009004;28;20044;-75
2023/05/28 11:15:12;;;;;;;7.32;3.70;;;;;;;;;;4991419;28;20073;-75
2023/05/28 11:17:38;;;;;;;6.28;2.97;;;;;;;;;;5006428;28;20052;-72
2023/05/28 11:20:05;;;;;;;9.52;4.05;;;;;;;;;;5000482;28;20117;-73
2023/05/28 11:22:35;;;;;;;6.68;3.72;;;;;;;;;;5003091;28;20042;-74
2023/05/28 11:25:05;;;;;;;8.63;3.85;;;24.70;38.70;;;;;;4999194;28;20161;-74
2023/05/28 11:27:33;;;;;;;8.00;4.10;;;;;;;;;;5003483;28;20045;-76
2023/05/28 11:30:01;;;;;;;7.80;4.25;;;24.30;39.10;;;;;;5005830;28;20129;-74
2023/05/28 11:32:28;;;;;;;6.53;4.72;;;24.00;39.20;;;;;;4995680;28;20057;-75
2023/05/28 11:34:55;;;;;;;6.60;4.90;;;;;;;;;;5000461;28;20045;-74
2023/05/28 11:37:28;;;;;;;7.03;3.80;;;;;;;;;;5008092;28;20300;-73
2023/05/28 11:39:55;;;;;;;8.70;4.47;;;;;;;;;;5005548;28;20037;-76
2023/05/28 11:42:22;;;;;;;7.22;4.45;;;;;;;;;;5002764;28;20585;-73
2023/05/28 11:44:50;;;;;;;6.97;4.38;;;;;;;;;;4994301;28;20079;-74
2023/05/28 11:47:17;;;;;;;7.20;3.95;;;;;;;;;;5012700;28;20049;-73
2023/05/28 11:49:43;;;;;;;7.47;3.88;;;;;;;;;;4993907;28;20123;-74
2023/05/28 11:52:20;;;;;;;7.93;3.50;;;23.10;40.50;;;;;;5011355;28;20055;-72
2023/05/28 11:54:47;;;;;;;5.30;3.25;;;;;;;;;;5007043;28;20125;-72
2023/05/28 11:57:28;;;;;;;6.75;3.13;;;22.70;41.20;;;;;;5003283;28;20517;-73
2023/05/28 11:59:55;;;;;;;6.63;3.28;;;;;;;;;;4998132;28;20045;-71
2023/05/28 12:02:24;;;;;;;6.13;3.20;;;;;;;;;;5003788;28;20060;-74
2023/05/28 12:05:08;;;;;;;6.00;2.58;;;;;;;;;;5005264;28;20045;-72
2023/05/28 12:07:36;;;;;;;6.38;2.65;;;22.40;42.60;;;;;;5005383;28;20061;-75
2023/05/28 12:10:12;;;;;;;4.25;2.20;;;;;;;;;;4997327;28;20324;-71
2023/05/28 12:12:46;;;;;;;8.02;2.40;;;;;;;;;;4986231;28;20049;-74
2023/05/28 12:15:13;;;;;;;6.18;2.45;;;;;;;;;;4977643;28;20138;-76
2023/05/28 12:17:41;;;;;;;6.00;2.15;;;;;;;;;;4971668;28;20085;-73
2023/05/28 12:20:07;;;;;;;8.05;2.17;;;;;;;;;;4992629;28;20052;-75
2023/05/28 12:22:34;;;;;;;5.95;2.33;;;;;;;;;;4968939;28;20099;-74
2023/05/28 12:25:01;;;;;;;7.22;2.42;;;;;;;;;;4976111;28;20053;-77
2023/05/28 12:27:27;;;;;;;8.63;2.00;;;;;;;;;;4986384;28;20100;-77
2023/05/28 12:29:53;;;;;;;5.50;2.22;;;;;;;;;;4968935;28;20755;-74
2023/05/28 12:32:20;;;;;;;5.50;1.75;;;;;;;;;;4988131;28;20059;-77
2023/05/28 12:34:46;;;;;;;5.80;1.67;;;;;;;;;;4967092;28;20114;-75
2023/05/28 12:37:12;;;;;;;3.88;1.52;;;;;;;;;;4969901;28;20057;-78
2023/05/28 12:39:39;;;;;;;4.95;1.67;;;;;;;;;;4979142;28;20508;-76
2023/05/28 12:42:05;;;;;;;5.45;1.55;;;;;;;;;;4972375;28;20091;-72
2023/05/28 12:44:32;;;;;;;6.88;2.22;;;;;;;;;;4973744;28;20813;-73
2023/05/28 12:46:58;;;;;;;7.03;1.98;;;;;;;;;;4978004;28;20063;-78
2023/05/28 12:49:24;;;;;;;7.43;1.35;;;;;;;;;;4996154;28;20060;-74
2023/05/28 12:51:50;;;;;;;7.53;1.60;;;;;;;;;;4978812;28;20277;-76
2023/05/28 12:54:21;;;;;;;9.25;1.92;;;;;;;;;;4995932;28;20141;-71
2023/05/28 12:56:47;;;;;;;6.72;2.20;;;;;;;;;;4992484;28;20138;-76
2023/05/28 12:59:28;;;;;;;6.90;2.45;;;;;;;;;;4982939;28;20771;-73
2023/05/28 13:01:55;;;;;;;10.98;2.40;;;;;;;;;;4987955;28;20674;-74
2023/05/28 13:04:22;;;;;;;10.20;2.60;;;22.10;55.00;;;;;;4995984;28;20199;-81
2023/05/28 13:06:49;;;;;;;6.53;2.22;;;;;;;;;;4994497;28;20060;-70
2023/05/28 13:09:16;;;;;;;7.53;2.08;;;;;;;;;;4977240;28;20214;-73
2023/05/28 13:11:42;;;;;;;8.77;1.90;;;;;;;;;;4997575;28;20088;-69
2023/05/28 13:14:09;;;;;;;8.27;2.50;;;;;;;;;;4983707;28;20609;-75
2023/05/28 13:16:36;;;;;;;10.05;2.22;;;;;;;;;;4997789;28;20052;-80
2023/05/28 13:19:03;;;;;;;4.82;1.55;;;;;;;;;;4986782;28;21044;-78
2023/05/28 13:21:34;;;;;;;8.35;1.90;;;;;;;;;;4999530;28;20136;-76
2023/05/28 13:24:02;;;;;;;10.35;2.28;;;;;;;;;;4997028;28;20775;-77
2023/05/28 13:26:30;;;;;;;5.13;2.05;;;;;;;;;;4997824;28;20092;-76
2023/05/28 13:28:57;;;;;;;8.73;2.30;;;;;;;;;;4998431;28;20085;-76
2023/05/28 13:31:23;;;;;;;6.32;1.63;;;;;;;;;;4983617;28;20119;-75
2023/05/28 13:33:50;;;;;;;6.82;1.65;;;;;;;;;;4979373;28;20526;-78
2023/05/28 13:36:16;;;;;;;6.43;1.98;;;;;;;;;;4995527;28;20169;-72
2023/05/28 13:38:43;;;;;;;7.35;2.50;;;22.10;58.80;;;;;;4996570;28;20057;-74
2023/05/28 13:41:10;;;;;;;14.95;2.97;;;;;;;;;;4970331;28;20045;-75
2023/05/28 13:43:37;;;;;;;7.65;1.73;;;;;;;;;;4982498;28;20052;-77
2023/05/28 13:46:07;;;;;;;8.98;2.45;;;;;;;;;;4979289;28;20054;-72
2023/05/28 13:48:33;;;;;;;12.38;3.25;;;;;;;;;;4981972;28;20180;-77
2023/05/28 13:51:00;;;;;;;10.68;2.83;;;;;;;;;;4977104;28;20065;-75
2023/05/28 13:53:30;;;;;;;10.93;2.55;;;;;;;;;;4997695;28;20057;-77
2023/05/28 13:55:59;;;;;;;7.78;2.47;;;;;;;;;;4980046;28;20890;-76
2023/05/28 13:58:26;;;;;;;9.88;2.47;;;;;;;;;;4983433;28;23361;-77
2023/05/28 14:00:52;;;;;;;8.63;2.60;;;;;;;;;;4947164;28;20069;-77
2023/05/28 14:03:18;;;;;;;11.50;2.65;;;;;;;;;;4980964;28;20053;-76
2023/05/28 14:05:45;;;;;;;7.15;2.25;;;;;;;;;;4977692;28;20056;-72
2023/05/28 14:08:12;;;;;;;7.00;2.10;;;;;;;;;;4957928;28;20827;-74
2023/05/28 14:10:38;;;;;;;8.13;2.25;;;;;;;;;;4976713;28;20108;-72
2023/05/28 14:13:04;;;;;;;7.20;2.13;;;;;;;;;;4963531;28;20049;-77